Airfield :
LOGIN :

Register | Disclaimer

   EN    FR    IT 

 










Legend :    VFR   Marginal VFR   IFR   Intensive IFR   Very Intensive IFR
Visi :
Ceiling :
>= 8 km
>= 3000ft
5 to 8 km
1000 to 3000 ft
1500m to 5 km
500 to 1000 ft
800 to 1500m
200 to 500 ft
< 800m
< 200 ft
Symbols :   Thunderstorms  Fog  Heavy snow  Heavy precipitations  Wind > 20 kt
SIGMETs :     Misc.  Thunderstorms  Icing  Turbulence  Mountain Waves  Volcanic Ashes







- Airport Elevation : 3 ft
- IATA code : LWR


EHLW - Leuuwarden Air Base

CURRENT METAR :
  • 250025Z AUTO 23016KT 9999 BKN010 OVC012 12/11 Q1004 GRN

EXPIRED METARs :
  • 242355Z AUTO 23016G26KT 9999 BKN010 OVC013 12/11 Q1004 REDZ GRN
  • 242341Z AUTO 23015G27KT 9999 SCT010 OVC012 12/11 Q1004 GRN
  • 242335Z AUTO 23015KT 9999 DZRA FEW008 BKN010 OVC012 12/11 Q1005 GRN
  • 242329Z AUTO 23015KT 200V260 9999 -RA FEW008 BKN009 OVC011 12/11 Q1005 GRN
  • 242325Z AUTO 23015KT 200V260 9999 -RA FEW008 BKN009 BKN011 FEW015CB 12/11 Q1005 RERA GRN
  • 242313Z AUTO 23016KT 9999 -RA FEW006 SCT007 BKN008 FEW015CB 12/11 Q1005 GRN
  • 242308Z AUTO 23015KT 9999 -RA FEW005 BKN006 BKN008 FEW015CB 12/11 Q1005 YLO
  • 242255Z AUTO 22012KT 180V270 3500 R23/P3000U RA FEW003 BKN004 BKN006 FEW015CB 12/11 Q1005 YLO
  • 242235Z AUTO 20011KT 150V230 2900 R23/2700D RA SCT003 BKN004 BKN005 SCT015CB 11/11 Q1006 YLO
  • 242228Z AUTO 19010KT 150V230 2900 R23/2800D RA SCT003 SCT004 BKN005 SCT015CB 11/11 Q1006 YLO
  • 242225Z AUTO 19010KT 150V220 3100 R23/P3000D RA FEW003 SCT004 BKN006 SCT015CB 11/11 Q1006 YLO
  • 242212Z AUTO 19009KT 150V220 3000 R23/P3000N RA FEW003 SCT005 BKN007 SCT015CB 11/11 Q1006 YLO
  • 242203Z AUTO 20010KT 150V230 3500 R23/P3000N -SHRA FEW003 SCT004 SCT015CB BKN017 11/10 Q1007 YLO
  • 242155Z AUTO 20010KT 160V230 4100 -SHRA FEW005 SCT015CB BKN023 11/10 Q1007 GRN
  • 242148Z AUTO 20010KT 160V230 4400 -SHRA FEW007 SCT015CB OVC029 11/10 Q1007 GRN
  • 242138Z AUTO 19010KT 140V230 5000 -SHRA FEW007 SCT015CB BKN050 11/10 Q1007 WHT
  • 242132Z AUTO 19009KT 140V210 5000 -SHRA FEW007 SCT014 SCT015CB BKN029 11/10 Q1007 GRN

TAF TAF EHLW
Valid from the 24 at 13:00 until the 25 at 01:00 UTC


241249Z 2413/2501 27016KT 9999 SCT025
BECMG 2416/2419 17007KT
BECMG 2420/2423 23019KT SCT010 BKN015
TEMPO 2421/2501 4000 RA SCT006 BKN010
No reported NOTAMs for that airfield.



MET'MAP, your aeronautical weather chart ! - Copyright ORBIFLY December 2007 - Disclaimer

ORBIFLY MET'MAP TEAM :

Programming & Development : Alexandra Zaïnal
Concept & Development : Baudouin d'Aumeries
Co-Development & Prog : Marc-Olivier Méhu
Technical & hardware support : Manuel Goepfert

Contact : metmap@orbifly.com




SOURCES & CREDITS :

   NOAA